04/03 08:00 更新

3,000ftに雲が少し

地上風: 方向不定 2kt

上空風
13,000ft: 未計測
10,000ft: 未計測
 7,000ft: 230°10kt
 3,000ft: 未計測

地上: 8℃
上空: -15.5℃

日没: 18:04

RJTJ 022300Z VRB02KT 9999 FEW030 08/M02 Q1021 RMK 1CU030 A3016=